Time;durP1;ratioP1;P1;durP2;ratioP2;P2;SDS_P1;SDS_P2;PMS_P1;PMS_P2;Temp;Humidity;BMP_temperature;BMP_pressure;BME280_temperature;BME280_humidity;BME280_pressure;Samples;Min_cycle;Max_cycle;Signal;HPM_P1;HPM_P2
2023/02/20 00:00:24;;;;;;;;;;;18.10;49.50;;;;;;5007473;28;19917;-73
2023/02/20 00:02:50;;;;;;;;;;;18.20;49.40;;;;;;5007779;28;20114;-71
2023/02/20 00:05:16;;;;;;;;;;;18.30;49.40;;;;;;5006881;28;19913;-73
2023/02/20 00:07:41;;;;;;;;;;;18.30;49.30;;;;;;5006453;28;19918;-71
2023/02/20 00:10:07;;;;;;;;;;;18.40;49.30;;;;;;5006998;28;19910;-74
2023/02/20 00:12:33;;;;;;;;;;;18.40;49.20;;;;;;5007030;28;20045;-71
2023/02/20 00:14:59;;;;;;;;;;;18.50;48.90;;;;;;5006203;28;19908;-72
2023/02/20 00:17:24;;;;;;;;;;;18.50;49.00;;;;;;5008223;28;19910;-71
2023/02/20 00:19:50;;;;;;;;;;;18.40;49.00;;;;;;5007489;28;19909;-72
2023/02/20 00:22:15;;;;;;;;;;;18.30;49.10;;;;;;5007687;28;19909;-72
2023/02/20 00:24:41;;;;;;;;;;;18.20;49.30;;;;;;5007844;28;20550;-73
2023/02/20 00:27:06;;;;;;;;;;;18.20;49.40;;;;;;5006618;28;20201;-71
2023/02/20 00:29:32;;;;;;;;;;;18.10;49.60;;;;;;5007009;28;20265;-72
2023/02/20 00:31:57;;;;;;;;;;;18.00;49.60;;;;;;5006532;28;19910;-72
2023/02/20 00:34:25;;;;;;;;;;;18.00;49.70;;;;;;5006033;28;19973;-74
2023/02/20 00:36:51;;;;;;;;;;;17.90;49.60;;;;;;5004711;28;19914;-73
2023/02/20 00:39:16;;;;;;;;;;;17.80;49.70;;;;;;5005406;28;19936;-72
2023/02/20 00:41:42;;;;;;;;;;;17.80;50.00;;;;;;5005136;28;19969;-73
2023/02/20 00:44:07;;;;;;;;;;;17.80;50.10;;;;;;5004656;28;20053;-72
2023/02/20 00:46:33;;;;;;;;;;;17.70;49.80;;;;;;5003800;28;19960;-75
2023/02/20 00:48:58;;;;;;;;;;;17.70;50.10;;;;;;5004297;28;19902;-76
2023/02/20 00:51:24;;;;;;;;;;;17.70;50.20;;;;;;5004593;28;20097;-72
2023/02/20 00:53:50;;;;;;;;;;;17.60;50.30;;;;;;5004650;28;19906;-74
2023/02/20 00:56:15;;;;;;;;;;;17.60;50.10;;;;;;5003320;28;19928;-76
2023/02/20 00:58:41;;;;;;;;;;;17.60;50.20;;;;;;5003217;28;19913;-73
2023/02/20 01:01:06;;;;;;;;;;;17.50;50.40;;;;;;5003819;28;19909;-75
2023/02/20 01:03:32;;;;;;;;;;;17.60;50.40;;;;;;5003234;28;19957;-74
2023/02/20 01:05:58;;;;;;;;;;;17.60;50.20;;;;;;5003872;28;19956;-75
2023/02/20 01:08:23;;;;;;;;;;;17.70;50.20;;;;;;5003300;28;19909;-72
2023/02/20 01:10:49;;;;;;;;;;;17.80;50.00;;;;;;5003120;28;19921;-76
2023/02/20 01:13:15;;;;;;;;;;;17.90;49.80;;;;;;5005094;28;19901;-70
2023/02/20 01:15:40;;;;;;;;;;;18.00;49.60;;;;;;5004902;28;19902;-70
2023/02/20 01:18:06;;;;;;;;;;;18.10;49.60;;;;;;5004107;28;19910;-72
2023/02/20 01:20:31;;;;;;;;;;;18.10;49.30;;;;;;5004004;28;19910;-71
2023/02/20 01:22:57;;;;;;;;;;;18.10;49.10;;;;;;5004553;28;20176;-74
2023/02/20 01:25:23;;;;;;;;;;;18.20;49.20;;;;;;5004389;28;19937;-75
2023/02/20 01:27:48;;;;;;;;;;;18.20;49.10;;;;;;5004869;28;19916;-73
2023/02/20 01:30:14;;;;;;;;;;;18.30;49.00;;;;;;5005349;28;19910;-72
2023/02/20 01:32:40;;;;;;;;;;;18.30;48.90;;;;;;5005824;28;19902;-71
2023/02/20 01:35:06;;;;;;;;;;;18.40;48.80;;;;;;5006262;28;19902;-74
2023/02/20 01:37:31;;;;;;;;;;;18.30;48.70;;;;;;5006443;28;20336;-71
2023/02/20 01:39:57;;;;;;;;;;;18.20;48.80;;;;;;5005920;28;19910;-72
2023/02/20 01:42:23;;;;;;;;;;;18.10;48.90;;;;;;5005212;28;19909;-74
2023/02/20 01:44:49;;;;;;;;;;;18.00;49.00;;;;;;5005669;28;19913;-75
2023/02/20 01:47:15;;;;;;;;;;;17.90;49.20;;;;;;5004751;28;19912;-71
2023/02/20 01:49:41;;;;;;;;;;;17.80;49.40;;;;;;5004767;28;19901;-75
2023/02/20 01:52:14;;;;;;;;;;;17.80;49.50;;;;;;5004033;28;19983;-74
2023/02/20 01:54:41;;;;;;;;;;;17.80;49.60;;;;;;5003343;28;19925;-71
2023/02/20 01:57:08;;;;;;;;;;;17.70;49.70;;;;;;5003640;28;19929;-75
2023/02/20 01:59:37;;;;;;;;;;;17.70;50.30;;;;;;5003583;28;20272;-73
2023/02/20 02:02:03;;;;;;;;;;;17.70;49.90;;;;;;5002745;28;19909;-74
2023/02/20 02:04:29;;;;;;;;;;;17.70;49.90;;;;;;5002814;28;19910;-75
2023/02/20 02:06:55;;;;;;;;;;;17.60;49.70;;;;;;5002197;28;19920;-73
2023/02/20 02:09:28;;;;;;;;;;;17.60;50.60;;;;;;5002834;28;20109;-74
2023/02/20 02:11:53;;;;;;;;;;;17.60;50.00;;;;;;5001361;28;19910;-74
2023/02/20 02:14:19;;;;;;;;;;;17.60;50.00;;;;;;5002267;28;20172;-76
2023/02/20 02:16:44;;;;;;;;;;;17.60;50.00;;;;;;5003255;28;19932;-75
2023/02/20 02:19:19;;;;;;;;;;;17.60;50.10;;;;;;5002475;28;19910;-72
2023/02/20 02:22:03;;;;;;;;;;;17.50;50.10;;;;;;5005304;28;19910;-75
2023/02/20 02:24:38;;;;;;;;;;;17.50;50.10;;;;;;5006163;28;19910;-74
2023/02/20 02:27:03;;;;;;;;;;;17.50;50.10;;;;;;5005792;28;20225;-75
2023/02/20 02:29:41;;;;;;;;;;;17.60;50.10;;;;;;5006470;28;19946;-73
2023/02/20 02:32:42;;;;;;;;;;;17.60;50.00;;;;;;5005906;28;20419;-75
2023/02/20 02:35:20;;;;;;;;;;;17.80;50.00;;;;;;4965718;29;20035;-74
2023/02/20 02:37:54;;;;;;;;;;;17.90;49.80;;;;;;5001282;28;19909;-72
2023/02/20 02:40:23;;;;;;;;;;;18.00;49.50;;;;;;5006836;28;19952;-76
2023/02/20 02:43:07;;;;;;;;;;;18.00;49.30;;;;;;5006842;28;19937;-74
2023/02/20 02:45:33;;;;;;;;;;;18.00;49.20;;;;;;5005528;28;19932;-74
2023/02/20 02:48:33;;;;;;;;;;;18.00;49.10;;;;;;5007791;28;19910;-73
2023/02/20 02:51:02;;;;;;;;;;;18.10;49.00;;;;;;4966248;29;19918;-72
2023/02/20 02:53:28;;;;;;;;;;;18.20;49.00;;;;;;5000705;28;19901;-71
2023/02/20 02:55:53;;;;;;;;;;;18.20;48.90;;;;;;5007788;28;19924;-70
2023/02/20 02:58:19;;;;;;;;;;;18.20;48.70;;;;;;5006764;28;19924;-71
2023/02/20 03:00:48;;;;;;;;;;;18.20;48.70;;;;;;5008139;28;19910;-73
2023/02/20 03:03:23;;;;;;;;;;;18.10;48.80;;;;;;5007383;28;19910;-72
2023/02/20 03:05:49;;;;;;;;;;;18.00;48.90;;;;;;5006893;28;19953;-74
2023/02/20 03:08:21;;;;;;;;;;;17.90;49.10;;;;;;5007945;28;19916;-74
2023/02/20 03:10:47;;;;;;;;;;;17.80;49.30;;;;;;5006372;28;19925;-74
2023/02/20 03:13:13;;;;;;;;;;;17.80;50.00;;;;;;5006133;28;19929;-75
2023/02/20 03:15:41;;;;;;;;;;;17.70;49.60;;;;;;5005551;28;19902;-75
2023/02/20 03:18:10;;;;;;;;;;;17.60;49.60;;;;;;5004437;28;19909;-75
2023/02/20 03:20:41;;;;;;;;;;;17.60;49.60;;;;;;5005155;28;19909;-75
2023/02/20 03:23:08;;;;;;;;;;;17.50;49.70;;;;;;5004674;28;19925;-74
2023/02/20 03:25:36;;;;;;;;;;;17.50;49.80;;;;;;5004638;28;19905;-74
2023/02/20 03:28:08;;;;;;;;;;;17.50;49.90;;;;;;5004551;28;19916;-74
2023/02/20 03:30:35;;;;;;;;;;;17.50;50.10;;;;;;5004610;28;20207;-74
2023/02/20 03:44:07;;;;;;;;;;;17.40;50.20;;;;;;5004189;28;19976;-74
2023/02/20 03:46:34;;;;;;;;;;;17.30;50.20;;;;;;5003725;28;19913;-75
2023/02/20 03:49:05;;;;;;;;;;;17.40;50.20;;;;;;5004743;28;19944;-74
2023/02/20 03:54:15;;;;;;;;;;;17.50;50.20;;;;;;5004534;28;19932;-73
2023/02/20 03:56:43;;;;;;;;;;;17.60;50.10;;;;;;5004318;28;20241;-72
2023/02/20 03:59:14;;;;;;;;;;;17.70;50.00;;;;;;5004555;28;19902;-76
2023/02/20 04:01:42;;;;;;;;;;;17.90;49.80;;;;;;5004756;28;19917;-74
2023/02/20 04:04:09;;;;;;;;;;;17.90;49.70;;;;;;5004828;28;19937;-73
2023/02/20 04:06:35;;;;;;;;;;;18.00;49.40;;;;;;5004865;28;19905;-72
2023/02/20 04:09:03;;;;;;;;;;;18.00;49.20;;;;;;5005146;28;19910;-74
2023/02/20 04:11:32;;;;;;;;;;;18.10;49.10;;;;;;5004728;28;19902;-74
2023/02/20 04:13:58;;;;;;;;;;;18.10;49.20;;;;;;5005388;28;20090;-71
2023/02/20 04:16:24;;;;;;;;;;;18.10;49.00;;;;;;5006763;28;19902;-73
2023/02/20 04:18:50;;;;;;;;;;;18.20;49.00;;;;;;5006206;28;20189;-74
2023/02/20 04:21:22;;;;;;;;;;;18.20;48.80;;;;;;5006033;28;19918;-71
2023/02/20 04:23:50;;;;;;;;;;;18.30;48.80;;;;;;5005854;28;19910;-73
2023/02/20 04:26:17;;;;;;;;;;;18.30;48.60;;;;;;5004227;28;19913;-73
2023/02/20 04:28:43;;;;;;;;;;;18.20;48.50;;;;;;5007063;28;20313;-70
2023/02/20 04:31:11;;;;;;;;;;;18.20;48.60;;;;;;5006766;28;19905;-72
2023/02/20 04:33:37;;;;;;;;;;;18.10;48.80;;;;;;5007003;28;19909;-72
2023/02/20 04:36:03;;;;;;;;;;;18.00;49.00;;;;;;5005822;28;20244;-74
2023/02/20 04:38:28;;;;;;;;;;;17.90;49.10;;;;;;5005693;28;19916;-74
2023/02/20 04:40:54;;;;;;;;;;;17.90;49.30;;;;;;5005488;28;19902;-74
2023/02/20 04:43:20;;;;;;;;;;;17.80;49.40;;;;;;5005408;28;19908;-71
2023/02/20 04:45:45;;;;;;;;;;;17.70;49.50;;;;;;5003635;28;19953;-76
2023/02/20 04:48:11;;;;;;;;;;;17.60;49.60;;;;;;5004255;28;19917;-72
2023/02/20 04:50:36;;;;;;;;;;;17.60;49.60;;;;;;5002948;28;19981;-74
2023/02/20 04:53:02;;;;;;;;;;;17.60;49.70;;;;;;5003718;28;19916;-72
2023/02/20 04:55:28;;;;;;;;;;;17.50;49.80;;;;;;5003973;28;20176;-74
2023/02/20 04:57:55;;;;;;;;;;;17.50;49.90;;;;;;5003695;28;19913;-74
2023/02/20 05:00:21;;;;;;;;;;;17.50;50.00;;;;;;5002873;28;19901;-74
2023/02/20 05:02:47;;;;;;;;;;;17.40;50.00;;;;;;5002932;28;20141;-76
2023/02/20 05:05:19;;;;;;;;;;;17.40;50.10;;;;;;5002491;28;20205;-73
2023/02/20 05:07:45;;;;;;;;;;;17.40;50.20;;;;;;5002571;28;19909;-75
2023/02/20 05:10:15;;;;;;;;;;;17.40;50.20;;;;;;5002901;28;19901;-72
2023/02/20 05:12:40;;;;;;;;;;;17.40;50.10;;;;;;5002429;28;19928;-76
2023/02/20 05:15:06;;;;;;;;;;;17.50;50.20;;;;;;5002838;28;19908;-73
2023/02/20 05:17:32;;;;;;;;;;;17.50;50.10;;;;;;5003148;28;19909;-74
2023/02/20 05:19:57;;;;;;;;;;;17.60;50.00;;;;;;5002689;28;19909;-74
2023/02/20 05:22:23;;;;;;;;;;;17.70;50.00;;;;;;5004730;28;19910;-73
2023/02/20 05:24:49;;;;;;;;;;;17.80;49.90;;;;;;5003732;28;19910;-72
2023/02/20 05:27:16;;;;;;;;;;;17.80;49.70;;;;;;5004331;28;19913;-76
2023/02/20 05:29:45;;;;;;;;;;;17.90;49.60;;;;;;5002709;28;19913;-76
2023/02/20 05:32:11;;;;;;;;;;;17.90;49.40;;;;;;5003995;28;20097;-76
2023/02/20 05:34:36;;;;;;;;;;;17.90;49.30;;;;;;5003652;28;19910;-74
2023/02/20 05:37:02;;;;;;;;;;;18.00;49.30;;;;;;5003873;28;19920;-73
2023/02/20 05:39:27;;;;;;;;;;;18.00;49.20;;;;;;5004772;28;19913;-72
2023/02/20 05:41:53;;;;;;;;;;;18.10;49.20;;;;;;5004345;28;20105;-72
2023/02/20 05:44:19;;;;;;;;;;;18.20;49.00;;;;;;5004518;28;19917;-73
2023/02/20 05:46:44;;;;;;;;;;;18.30;48.90;;;;;;5004890;28;19913;-71
2023/02/20 05:49:10;;;;;;;;;;;18.30;49.30;;;;;;5004550;28;19910;-73
2023/02/20 05:51:36;;;;;;;;;;;18.30;48.60;;;;;;5005110;28;19908;-72
2023/02/20 05:54:02;;;;;;;;;;;18.20;48.60;;;;;;5005502;28;19949;-73
2023/02/20 05:56:28;;;;;;;;;;;18.20;48.80;;;;;;5007679;28;19922;-72
2023/02/20 05:58:54;;;;;;;;;;;18.00;49.00;;;;;;5009402;28;19917;-75
2023/02/20 06:01:21;;;;;;;;;;;18.00;49.10;;;;;;5008643;28;19909;-73
2023/02/20 06:03:47;;;;;;;;;;;17.90;49.30;;;;;;5007849;28;19976;-72
2023/02/20 06:06:13;;;;;;;;;;;17.80;49.30;;;;;;5008030;28;19914;-74
2023/02/20 06:08:39;;;;;;;;;;;17.80;49.50;;;;;;5007551;28;20221;-75
2023/02/20 06:11:04;;;;;;;;;;;17.70;49.60;;;;;;5006929;28;19945;-71
2023/02/20 06:13:30;;;;;;;;;;;17.70;49.70;;;;;;5006890;28;19916;-75
2023/02/20 06:15:55;;;;;;;;;;;17.60;49.70;;;;;;5006643;28;20110;-74
2023/02/20 06:18:21;;;;;;;;;;;17.60;49.80;;;;;;5006777;28;19937;-75
2023/02/20 06:20:47;;;;;;;;;;;17.60;49.80;;;;;;5006098;28;19909;-73
2023/02/20 06:23:12;;;;;;;;;;;17.50;49.80;;;;;;5007053;28;19910;-72
2023/02/20 06:25:38;;;;;;;;;;;17.50;49.90;;;;;;5007409;28;19913;-74
2023/02/20 06:28:03;;;;;;;;;;;17.50;49.90;;;;;;5006379;28;19909;-75
2023/02/20 06:30:29;;;;;;;;;;;17.50;50.10;;;;;;5007028;28;20149;-73
2023/02/20 06:32:55;;;;;;;;;;;17.50;50.10;;;;;;5005786;28;19909;-77
2023/02/20 06:35:20;;;;;;;;;;;17.50;50.20;;;;;;5005718;28;19910;-75
2023/02/20 06:37:46;;;;;;;;;;;17.50;50.10;;;;;;5005492;28;19996;-74
2023/02/20 06:40:11;;;;;;;;;;;17.60;50.00;;;;;;5006241;28;19910;-74
2023/02/20 06:42:37;;;;;;;;;;;17.70;50.00;;;;;;5006539;28;19909;-72
2023/02/20 06:45:03;;;;;;;;;;;17.80;49.90;;;;;;5006408;28;20212;-73
2023/02/20 06:47:28;;;;;;;;;;;17.90;49.80;;;;;;5006261;28;19905;-71
2023/02/20 06:49:54;;;;;;;;;;;18.00;49.60;;;;;;5007513;28;20405;-71
2023/02/20 06:52:19;;;;;;;;;;;18.10;49.40;;;;;;5007636;28;19916;-70
2023/02/20 06:54:45;;;;;;;;;;;18.10;49.20;;;;;;5008168;28;19952;-73
2023/02/20 06:57:11;;;;;;;;;;;18.10;49.20;;;;;;5007491;28;20230;-74
2023/02/20 06:59:40;;;;;;;;;;;18.10;49.10;;;;;;5005144;28;19909;-72
2023/02/20 07:02:08;;;;;;;;;;;18.20;49.10;;;;;;5007347;28;20021;-72
2023/02/20 07:04:33;;;;;;;;;;;18.20;48.90;;;;;;5007571;28;19910;-74
2023/02/20 07:06:59;;;;;;;;;;;18.30;48.70;;;;;;5007549;28;20474;-74
2023/02/20 07:09:24;;;;;;;;;;;18.40;48.60;;;;;;5006803;28;19910;-72
2023/02/20 07:11:51;;;;;;;;;;;18.50;48.40;;;;;;5006760;28;19932;-73
2023/02/20 07:14:17;;;;;;;;;;;18.50;48.20;;;;;;5006791;28;19952;-70
2023/02/20 07:16:42;;;;;;;;;;;18.50;48.20;;;;;;5005375;28;20141;-72
2023/02/20 07:19:08;;;;;;;;;;;18.40;48.10;;;;;;5007032;28;19908;-72
2023/02/20 07:21:33;;;;;;;;;;;18.40;48.20;;;;;;5007073;28;19902;-72
2023/02/20 07:23:59;;;;;;;;;;;18.30;48.20;;;;;;5005711;28;19902;-75
2023/02/20 07:26:26;;;;;;;;;;;18.20;48.70;;;;;;5007046;28;19913;-75
2023/02/20 07:28:51;;;;;;;;;;;18.10;48.90;;;;;;5006785;28;19910;-73
2023/02/20 07:31:17;;;;;;;;;;;18.00;49.00;;;;;;5005853;28;19916;-73
2023/02/20 07:33:43;;;;;;;;;;;17.90;49.10;;;;;;5005622;28;19902;-74
2023/02/20 07:36:09;;;;;;;;;;;17.70;45.60;;;;;;5004766;28;19925;-74
2023/02/20 07:38:35;;;;;;;;;;;17.70;48.80;;;;;;4996717;28;19972;-74
2023/02/20 07:41:01;;;;;;;;;;;16.90;47.70;;;;;;5010505;28;20104;-72
2023/02/20 07:43:26;;;;;;;;;;;17.30;48.50;;;;;;5020790;28;20239;-75
2023/02/20 07:45:52;;;;;;;;;;;17.60;49.00;;;;;;5024119;28;19914;-73
2023/02/20 07:48:17;;;;;;;;;;;17.90;48.70;;;;;;5024503;28;19951;-72
2023/02/20 07:50:43;;;;;;;;;;;18.10;48.30;;;;;;5012737;28;19921;-75
2023/02/20 07:53:12;;;;;;;;;;;18.30;48.20;;;;;;4998869;28;19905;-72
2023/02/20 07:55:38;;;;;;;;;;;18.40;48.10;;;;;;4986981;28;19924;-72
2023/02/20 07:58:03;;;;;;;;;;;18.40;48.00;;;;;;4991096;28;19945;-71
2023/02/20 08:00:29;;;;;;;;;;;18.50;48.00;;;;;;4996034;28;19917;-73
2023/02/20 08:02:54;;;;;;;;;;;18.50;47.90;;;;;;4999806;28;19980;-74
2023/02/20 08:05:20;;;;;;;;;;;18.60;48.00;;;;;;5004970;28;20250;-74
2023/02/20 08:07:46;;;;;;;;;;;18.70;47.90;;;;;;5005124;28;20075;-72
2023/02/20 08:10:13;;;;;;;;;;;18.70;47.90;;;;;;5001358;28;19925;-71
2023/02/20 08:12:39;;;;;;;;;;;18.80;48.00;;;;;;5001431;28;19902;-71
2023/02/20 08:15:05;;;;;;;;;;;18.80;48.00;;;;;;5004498;28;20157;-72
2023/02/20 08:17:30;;;;;;;;;;;18.80;48.10;;;;;;5003915;28;20094;-71
2023/02/20 08:19:56;;;;;;;;;;;18.80;48.10;;;;;;5004089;28;19916;-70
2023/02/20 08:22:21;;;;;;;;;;;18.80;48.10;;;;;;5005460;28;19976;-71
2023/02/20 08:24:47;;;;;;;;;;;18.80;48.00;;;;;;5005760;28;19910;-71
2023/02/20 08:27:12;;;;;;;;;;;18.90;48.10;;;;;;5005594;28;20336;-71
2023/02/20 08:29:38;;;;;;;;;;;18.90;48.20;;;;;;5005399;28;20145;-71
2023/02/20 08:32:04;;;;;;;;;;;18.90;48.10;;;;;;5005387;28;19909;-72
2023/02/20 08:34:29;;;;;;;;;;;18.90;48.10;;;;;;5004874;28;19902;-71
2023/02/20 08:36:55;;;;;;;;;;;18.90;48.20;;;;;;5005803;28;19935;-70
2023/02/20 08:39:20;;;;;;;;;;;18.90;48.30;;;;;;5005109;28;19906;-71
2023/02/20 08:41:46;;;;;;;;;;;18.90;48.30;;;;;;5004065;28;19905;-71
2023/02/20 08:44:13;;;;;;;;;;;19.00;48.20;;;;;;4996882;28;19921;-74
2023/02/20 08:46:48;;;;;;;;;;;19.00;48.30;;;;;;5001673;28;19939;-72
2023/02/20 08:49:15;;;;;;;;;;;19.00;48.30;;;;;;5003649;28;19910;-72
2023/02/20 08:51:41;;;;;;;;;;;19.00;48.30;;;;;;5004492;28;19906;-75
2023/02/20 08:54:06;;;;;;;;;;;19.00;48.30;;;;;;5003223;28;19906;-75
2023/02/20 08:56:32;;;;;;;;;;;19.10;48.30;;;;;;5004599;28;19922;-72
2023/02/20 08:58:58;;;;;;;;;;;19.00;48.30;;;;;;5004917;28;19910;-71
2023/02/20 09:01:24;;;;;;;;;;;19.00;48.30;;;;;;5004316;28;20095;-73
2023/02/20 09:03:50;;;;;;;;;;;19.00;48.30;;;;;;5003224;28;19909;-74
2023/02/20 09:06:15;;;;;;;;;;;19.10;48.30;;;;;;5003257;28;19905;-75
2023/02/20 09:08:41;;;;;;;;;;;19.00;48.30;;;;;;4996586;28;20113;-74
2023/02/20 09:11:06;;;;;;;;;;;19.10;48.30;;;;;;5002299;28;19949;-74
2023/02/20 09:13:32;;;;;;;;;;;19.00;48.30;;;;;;5004370;28;19932;-73
2023/02/20 09:15:57;;;;;;;;;;;19.10;48.30;;;;;;5002844;28;19910;-75
2023/02/20 09:18:23;;;;;;;;;;;19.00;48.30;;;;;;5002472;28;19925;-75
2023/02/20 09:20:49;;;;;;;;;;;19.10;48.50;;;;;;5001059;28;19945;-76
2023/02/20 09:23:15;;;;;;;;;;;19.00;48.30;;;;;;5005111;28;19976;-73
2023/02/20 09:25:41;;;;;;;;;;;19.10;48.40;;;;;;5004446;28;19916;-73
2023/02/20 09:28:07;;;;;;;;;;;19.10;48.30;;;;;;5001357;28;19914;-74
2023/02/20 09:30:33;;;;;;;;;;;19.20;48.40;;;;;;4996219;28;19909;-75
2023/02/20 09:32:58;;;;;;;;;;;19.20;48.20;;;;;;4995206;28;20193;-72
2023/02/20 09:35:28;;;;;;;;;;;19.00;48.50;;;;;;4997036;28;19929;-78
2023/02/20 09:37:54;;;;;;;;;;;19.10;48.50;;;;;;4987285;28;19902;-75
2023/02/20 09:40:21;;;;;;;;;;;19.10;48.70;;;;;;5002316;28;20102;-73
2023/02/20 09:42:52;;;;;;;;;;;19.10;48.60;;;;;;5002657;28;19908;-75
2023/02/20 09:45:19;;;;;;;;;;;19.20;48.60;;;;;;4996859;28;19941;-71
2023/02/20 09:47:48;;;;;;;;;;;19.20;48.70;;;;;;5001642;28;19932;-74
2023/02/20 09:50:16;;;;;;;;;;;19.30;49.30;;;;;;5003791;28;19909;-71
2023/02/20 09:52:44;;;;;;;;;;;19.30;48.70;;;;;;5004715;28;19914;-77
2023/02/20 09:55:19;;;;;;;;;;;19.30;48.80;;;;;;5004921;28;19917;-71
2023/02/20 09:57:48;;;;;;;;;;;19.30;48.70;;;;;;5004692;28;19929;-70
2023/02/20 10:00:29;;;;;;;;;;;19.30;48.70;;;;;;5005030;28;19977;-73
2023/02/20 10:03:00;;;;;;;;;;;19.30;48.80;;;;;;5003852;28;19910;-71
2023/02/20 10:05:28;;;;;;;;;;;19.30;48.80;;;;;;5004018;28;19952;-71
2023/02/20 10:07:54;;;;;;;;;;;19.30;48.70;;;;;;5005149;28;20480;-71
2023/02/20 10:10:21;;;;;;;;;;;19.40;48.70;;;;;;5003570;28;19916;-71
2023/02/20 10:12:57;;;;;;;;;;;19.40;48.60;;;;;;5004346;28;19937;-71
2023/02/20 10:15:25;;;;;;;;;;;19.40;48.70;;;;;;5003858;28;19977;-75
2023/02/20 10:18:10;;;;;;;;;;;19.40;48.70;;;;;;5003458;28;19909;-75
2023/02/20 10:20:40;;;;;;;;;;;19.40;48.60;;;;;;5003933;28;19917;-73
2023/02/20 10:23:06;;;;;;;;;;;19.30;48.70;;;;;;5003829;28;19916;-73
2023/02/20 10:25:38;;;;;;;;;;;19.30;48.80;;;;;;4997459;28;19910;-72
2023/02/20 10:28:04;;;;;;;;;;;19.20;48.80;;;;;;4987758;28;19913;-73
2023/02/20 10:30:35;;;;;;;;;;;19.20;49.00;;;;;;4987744;28;19910;-72
2023/02/20 10:33:01;;;;;;;;;;;19.10;48.90;;;;;;4993138;28;19909;-74
2023/02/20 10:35:31;;;;;;;;;;;19.10;49.00;;;;;;5001999;28;19949;-75
2023/02/20 10:38:00;;;;;;;;;;;19.00;49.00;;;;;;4997321;28;20028;-76
2023/02/20 10:40:30;;;;;;;;;;;19.10;49.20;;;;;;4998584;28;19978;-74
2023/02/20 10:43:15;;;;;;;;;;;19.10;49.10;;;;;;4999022;28;19917;-74
2023/02/20 10:45:46;;;;;;;;;;;19.10;49.30;;;;;;5002602;28;19913;-74
2023/02/20 10:48:15;;;;;;;;;;;19.10;49.30;;;;;;5004678;28;20431;-78
2023/02/20 10:50:57;;;;;;;;;;;19.00;49.20;;;;;;5006133;28;19951;-74
2023/02/20 10:53:30;;;;;;;;;;;19.10;49.40;;;;;;4997942;28;19918;-76
2023/02/20 10:56:02;;;;;;;;;;;19.10;49.60;;;;;;4999356;28;19993;-73
2023/02/20 10:58:51;;;;;;;;;;;19.00;49.40;;;;;;5006377;28;19910;-74
2023/02/20 11:01:21;;;;;;;;;;;19.10;49.30;;;;;;5003860;28;19909;-73
2023/02/20 11:03:56;;;;;;;;;;;19.20;49.20;;;;;;5006161;28;20451;-75
2023/02/20 11:06:25;;;;;;;;;;;19.30;49.10;;;;;;5005816;28;19960;-73
2023/02/20 11:08:50;;;;;;;;;;;19.40;49.00;;;;;;5005841;28;19914;-76
2023/02/20 11:11:24;;;;;;;;;;;19.10;48.70;;;;;;5006652;28;19901;-73
2023/02/20 11:13:50;;;;;;;;;;;19.00;49.10;;;;;;5006549;28;19944;-73
2023/02/20 11:16:27;;;;;;;;;;;19.00;49.30;;;;;;5006838;28;19924;-74
2023/02/20 11:18:57;;;;;;;;;;;19.00;49.30;;;;;;5005841;28;19920;-74
2023/02/20 11:21:44;;;;;;;;;;;19.10;49.30;;;;;;5006422;28;19988;-72
2023/02/20 11:24:17;;;;;;;;;;;19.10;49.30;;;;;;5006206;28;19994;-74
2023/02/20 11:26:43;;;;;;;;;;;19.20;49.30;;;;;;5006077;28;19914;-71
2023/02/20 11:29:08;;;;;;;;;;;19.20;49.30;;;;;;5005568;28;19902;-76
2023/02/20 11:31:34;;;;;;;;;;;19.20;49.20;;;;;;5005284;28;19901;-75
2023/02/20 11:34:00;;;;;;;;;;;19.20;49.30;;;;;;5008277;28;19909;-74
2023/02/20 11:36:27;;;;;;;;;;;19.20;49.20;;;;;;5005536;28;19985;-74
2023/02/20 11:39:11;;;;;;;;;;;19.20;49.20;;;;;;5005341;28;19921;-72
2023/02/20 11:41:38;;;;;;;;;;;19.20;49.20;;;;;;5005104;28;20225;-73
2023/02/20 11:44:15;;;;;;;;;;;19.30;49.20;;;;;;5007003;28;20189;-72
2023/02/20 11:46:42;;;;;;;;;;;19.30;49.20;;;;;;5007376;28;19920;-73
2023/02/20 11:49:10;;;;;;;;;;;19.30;49.00;;;;;;5008286;28;19961;-73
2023/02/20 11:51:47;;;;;;;;;;;19.30;49.00;;;;;;5008251;28;19964;-72
2023/02/20 11:54:14;;;;;;;;;;;19.30;49.00;;;;;;5004034;28;19916;-74
2023/02/20 11:56:52;;;;;;;;;;;19.30;49.10;;;;;;5004209;28;19921;-73
2023/02/20 11:59:26;;;;;;;;;;;19.30;49.20;;;;;;5004526;28;19910;-76
2023/02/20 12:01:52;;;;;;;;;;;19.20;49.20;;;;;;5004767;28;20146;-73
2023/02/20 12:04:19;;;;;;;;;;;19.20;49.30;;;;;;5004914;28;19964;-74
2023/02/20 12:06:45;;;;;;;;;;;19.20;49.40;;;;;;5003941;28;19912;-74
2023/02/20 12:09:13;;;;;;;;;;;19.20;49.40;;;;;;5004841;28;19941;-75
2023/02/20 12:11:38;;;;;;;;;;;19.10;49.40;;;;;;5007634;28;19916;-75
2023/02/20 12:14:12;;;;;;;;;;;19.10;49.50;;;;;;5006455;28;19902;-74
2023/02/20 12:16:49;;;;;;;;;;;19.10;49.50;;;;;;5007509;28;20201;-72
2023/02/20 12:19:47;;;;;;;;;;;19.10;49.50;;;;;;5005601;28;20098;-73
2023/02/20 12:22:25;;;;;;;;;;;19.10;49.50;;;;;;4992076;28;19910;-73
2023/02/20 12:25:17;;;;;;;;;;;19.10;49.50;;;;;;5003824;28;19902;-74
2023/02/20 12:27:45;;;;;;;;;;;19.10;49.60;;;;;;4987458;28;19967;-73
2023/02/20 12:30:31;;;;;;;;;;;19.10;49.70;;;;;;5004093;28;19902;-77
2023/02/20 12:33:15;;;;;;;;;;;19.00;49.60;;;;;;5000609;28;20061;-74
2023/02/20 12:35:51;;;;;;;;;;;19.00;49.60;;;;;;5003700;28;19908;-73
2023/02/20 12:38:36;;;;;;;;;;;19.10;49.70;;;;;;5004070;28;19902;-75
2023/02/20 12:41:20;;;;;;;;;;;19.10;49.60;;;;;;5000075;28;20019;-72
2023/02/20 12:43:46;;;;;;;;;;;19.20;49.60;;;;;;5003596;28;19976;-73
2023/02/20 12:46:11;;;;;;;;;;;19.20;49.40;;;;;;5006575;28;19906;-74
2023/02/20 12:48:37;;;;;;;;;;;19.20;49.30;;;;;;5005146;28;19911;-75
2023/02/20 12:51:07;;;;;;;;;;;19.30;49.30;;;;;;5004957;28;19917;-74
2023/02/20 12:53:45;;;;;;;;;;;19.30;49.20;;;;;;5006590;28;19909;-72
2023/02/20 12:56:13;;;;;;;;;;;19.30;49.10;;;;;;5006436;28;19920;-74
2023/02/20 12:58:47;;;;;;;;;;;19.30;49.20;;;;;;5004324;28;20244;-73
2023/02/20 13:01:15;;;;;;;;;;;19.30;49.30;;;;;;5001445;28;20102;-72
2023/02/20 13:03:50;;;;;;;;;;;19.30;49.30;;;;;;5002669;28;19980;-75
2023/02/20 13:06:32;;;;;;;;;;;19.30;49.30;;;;;;5002428;28;19913;-72
2023/02/20 13:09:24;;;;;;;;;;;19.30;49.20;;;;;;5003028;28;19911;-71
2023/02/20 13:11:51;;;;;;;;;;;19.30;49.20;;;;;;5002327;28;19975;-73
2023/02/20 13:14:33;;;;;;;;;;;19.40;49.30;;;;;;5000968;28;19971;-74
2023/02/20 13:17:05;;;;;;;;;;;19.30;49.30;;;;;;5002297;28;19917;-73
2023/02/20 13:19:33;;;;;;;;;;;19.30;49.30;;;;;;5002634;28;19933;-74
2023/02/20 13:21:59;;;;;;;;;;;19.20;49.40;;;;;;5002661;28;19969;-73
2023/02/20 13:24:28;;;;;;;;;;;19.20;49.50;;;;;;5003296;28;20240;-74
2023/02/20 13:27:05;;;;;;;;;;;19.20;49.60;;;;;;5002689;28;19952;-71
2023/02/20 13:29:31;;;;;;;;;;;19.20;49.60;;;;;;5003519;28;19983;-74
2023/02/20 13:32:17;;;;;;;;;;;19.10;49.60;;;;;;5002642;28;19906;-74
2023/02/20 13:34:43;;;;;;;;;;;19.20;49.70;;;;;;4998212;28;19910;-73
2023/02/20 13:37:27;;;;;;;;;;;19.10;49.70;;;;;;5002316;28;19969;-72
2023/02/20 13:39:52;;;;;;;;;;;19.10;49.80;;;;;;5001923;28;19909;-72
2023/02/20 13:42:25;;;;;;;;;;;19.10;49.80;;;;;;5003443;28;20224;-73
2023/02/20 13:44:51;;;;;;;;;;;19.10;49.90;;;;;;5002870;28;19910;-73
2023/02/20 13:47:17;;;;;;;;;;;19.10;49.90;;;;;;5002065;28;19912;-74
2023/02/20 13:49:48;;;;;;;;;;;19.00;49.90;;;;;;5003264;28;19958;-75
2023/02/20 13:52:47;;;;;;;;;;;19.00;50.00;;;;;;5003775;28;19913;-77
2023/02/20 13:55:20;;;;;;;;;;;19.00;49.90;;;;;;4991066;28;19981;-74
2023/02/20 13:57:51;;;;;;;;;;;19.10;49.80;;;;;;5001670;28;20008;-73
2023/02/20 14:00:19;;;;;;;;;;;19.10;49.70;;;;;;5001426;28;19943;-73
2023/02/20 14:02:45;;;;;;;;;;;18.90;48.40;;;;;;5002211;28;19910;-71
2023/02/20 14:05:21;;;;;;;;;;;18.30;46.10;;;;;;5001393;28;19916;-75
2023/02/20 14:07:47;;;;;;;;;;;18.60;49.50;;;;;;5003780;28;19906;-74
2023/02/20 14:10:40;;;;;;;;;;;18.80;49.50;;;;;;5004259;28;20106;-73
2023/02/20 14:13:26;;;;;;;;;;;18.90;49.50;;;;;;5002725;28;19906;-76
2023/02/20 14:15:56;;;;;;;;;;;19.10;49.30;;;;;;5003119;28;19910;-71
2023/02/20 14:18:24;;;;;;;;;;;19.10;49.20;;;;;;5006430;28;19924;-71
2023/02/20 14:21:08;;;;;;;;;;;19.20;49.10;;;;;;5007845;28;19983;-73
2023/02/20 14:23:34;;;;;;;;;;;19.30;49.00;;;;;;5007180;28;19933;-75
2023/02/20 14:26:01;;;;;;;;;;;19.30;49.00;;;;;;5009664;28;19936;-70
2023/02/20 14:28:29;;;;;;;;;;;19.40;49.00;;;;;;5009710;28;19952;-73
2023/02/20 14:31:19;;;;;;;;;;;19.40;49.00;;;;;;5010479;28;20136;-72
2023/02/20 14:33:44;;;;;;;;;;;19.30;49.10;;;;;;5006974;28;19909;-72
2023/02/20 14:36:36;;;;;;;;;;;19.30;49.20;;;;;;5009030;28;19997;-72
2023/02/20 14:39:05;;;;;;;;;;;19.30;49.30;;;;;;4989309;28;19913;-73